Aeroporto :
LOGIN :

Iscrizione | Disclaimer

   EN    FR    IT 

 










Sommario :    VFR   VFR Marginale   IFR   IFR Intensivo   IFR Molto Intensivo
Visibilità : 
Base nubi : 
>= 8 km
>= 3000ft
5 / 8 km
1000 / 3000 ft
1500m / 5 km
500 / 1000 ft
800 / 1500m
200 / 500 ft
< 800m
< 200 ft
Simboli :   Temporali  Nebbia  Neve Forte  Precipitazioni Forti  Vento > 20 kt
SIGMETs :   Varie  Temporali  Ghiacco  Turbolenza  Onda orograficha  Ceneri Vulcaniche







- Altitudine del aeroporto : 20 ft


EBFN - Koksijde

ULTIMO METAR :
  • 221725Z AUTO 29009KT 9999 OVC084/// 24/14 Q1015 BLU

METARs OBSOLETI :
  • 221655Z AUTO 28009KT 9999 OVC088/// 24/14 Q1015 BLU
  • 221625Z AUTO 30008KT 9999 OVC098/// 24/15 Q1016 BLU
  • 221555Z AUTO 32008KT 9999 OVC100/// 23/15 Q1016 BLU
  • 221525Z AUTO 33008KT 9999 BKN100/// 23/15 Q1016 BLU
  • 221455Z AUTO 33008KT 9999 BKN110/// 24/15 Q1016 BLU

TAF TAF EBFN
Valido dal 22 a 13 ore il 22 a 22 ore UTC


221141Z 2213/2222 30008KT 9999 FEW035 SCT200
BECMG 2217/2219 27012KT FEW100 SCT200
Nessun NOTAM noto per questo aeroporto.



MetMap, La meteo Aeronautica in un colpo d'occhio ! - Copyright ORBIFLY Dicembre 2007 - Disclaimer

ORBIFLY MET'MAP TEAM :

Programmazione e sviluppo : Alexandra Zaïnal
Concezione e sviluppo : Baudouin d'Aumeries
Co-Programmazione e sviluppo : Marc-Olivier Méhu
Supporto tecnico e logistico : Manuel Goepfert
Aiuto per la traduzione : Arnaldo La Scala

Contatto : metmap@orbifly.com




FONTI E CREDITI :

   NOAA